createdAt,value
2023-02-06T00:00:52.089Z,103533.50
2023-02-06T00:03:20.385Z,103538.59
2023-02-06T00:05:57.211Z,103532.69
2023-02-06T00:08:25.458Z,103538.59
2023-02-06T00:10:53.251Z,103536.06
2023-02-06T00:13:21.443Z,103530.88
2023-02-06T00:15:49.239Z,103525.69
2023-02-06T00:18:16.948Z,103528.13
2023-02-06T00:20:44.704Z,103530.00
2023-02-06T00:23:13.728Z,103540.47
2023-02-06T00:25:41.468Z,103530.78
2023-02-06T00:28:09.187Z,103528.13
2023-02-06T00:30:36.917Z,103535.28
2023-02-06T00:33:04.831Z,103540.34
2023-02-06T00:35:32.521Z,103529.78
2023-02-06T00:38:02.375Z,103531.34
2023-02-06T00:40:31.415Z,103530.91
2023-02-06T00:42:59.129Z,103538.69
2023-02-06T00:45:26.825Z,103534.34
2023-02-06T00:47:54.664Z,103539.41
2023-02-06T00:50:22.386Z,103544.38
2023-02-06T00:52:50.074Z,103540.78
2023-02-06T00:55:17.894Z,103531.47
2023-02-06T00:57:46.970Z,103544.44
2023-02-06T01:00:15.634Z,103537.22
2023-02-06T01:02:43.346Z,103533.31
2023-02-06T01:05:11.086Z,103534.16
2023-02-06T01:07:40.327Z,103532.59
2023-02-06T01:10:09.830Z,103533.53
2023-02-06T01:12:38.125Z,103524.94
2023-02-06T01:15:09.132Z,103525.78
2023-02-06T01:17:36.766Z,103529.38
2023-02-06T01:20:05.839Z,103536.06
2023-02-06T01:22:35.296Z,103530.69
2023-02-06T01:25:03.315Z,103537.47
2023-02-06T01:27:31.062Z,103536.41
2023-02-06T01:29:58.811Z,103527.69
2023-02-06T01:32:27.917Z,103529.53
2023-02-06T01:34:55.582Z,103522.53
2023-02-06T01:37:23.236Z,103516.50
2023-02-06T01:39:51.258Z,103518.22
2023-02-06T01:42:18.900Z,103515.56
2023-02-06T01:44:46.641Z,103524.06
2023-02-06T01:47:14.364Z,103516.19
2023-02-06T01:49:45.946Z,103515.41
2023-02-06T01:52:18.190Z,103515.47
2023-02-06T01:54:48.214Z,103513.00
2023-02-06T01:57:16.253Z,103510.63
2023-02-06T01:59:46.687Z,103520.22
2023-02-06T02:02:14.864Z,103528.25
2023-02-06T02:04:44.280Z,103543.16
2023-02-06T02:07:16.598Z,103546.81
2023-02-06T02:09:44.378Z,103542.72
2023-02-06T02:12:13.010Z,103545.63
2023-02-06T02:14:43.323Z,103544.13
2023-02-06T02:17:22.648Z,103557.38
2023-02-06T02:20:23.523Z,103547.66
2023-02-06T02:23:07.087Z,103538.59
2023-02-06T02:26:00.960Z,103536.16
2023-02-06T02:29:03.892Z,103533.03
2023-02-06T02:32:01.008Z,103530.69
2023-02-06T02:34:57.270Z,103536.13
2023-02-06T02:37:31.045Z,103537.16
2023-02-06T02:40:06.153Z,103536.53
2023-02-06T02:42:38.717Z,103537.56
2023-02-06T02:45:10.762Z,103531.72
2023-02-06T02:47:43.892Z,103529.28
2023-02-06T02:50:13.352Z,103525.34
2023-02-06T02:52:41.062Z,103527.41
2023-02-06T02:55:21.136Z,103534.44
2023-02-06T02:57:50.788Z,103543.09
2023-02-06T03:00:19.370Z,103538.72
2023-02-06T03:02:47.487Z,103531.41
2023-02-06T03:05:21.264Z,103537.69
2023-02-06T03:07:55.958Z,103539.72
2023-02-06T03:10:29.022Z,103527.88
2023-02-06T03:13:03.795Z,103536.69
2023-02-06T03:15:36.644Z,103546.94
2023-02-06T03:18:09.147Z,103544.91
2023-02-06T03:20:39.916Z,103541.06
2023-02-06T03:23:08.133Z,103535.88
2023-02-06T03:25:38.416Z,103535.81
2023-02-06T03:28:06.663Z,103533.91
2023-02-06T03:30:35.419Z,103539.44
2023-02-06T03:33:06.146Z,103534.06
2023-02-06T03:35:36.540Z,103542.50
2023-02-06T03:38:06.109Z,103539.91
2023-02-06T03:40:34.067Z,103540.81
2023-02-06T03:43:03.576Z,103538.38
2023-02-06T03:45:32.555Z,103533.97
2023-02-06T03:48:02.571Z,103534.06
2023-02-06T03:50:30.341Z,103525.53
2023-02-06T03:52:59.795Z,103528.09
2023-02-06T03:55:29.047Z,103521.91
2023-02-06T03:57:59.904Z,103522.09
2023-02-06T04:00:28.067Z,103534.75
2023-02-06T04:02:56.820Z,103524.38
2023-02-06T04:05:24.907Z,103516.56
2023-02-06T04:07:53.894Z,103522.59
2023-02-06T04:10:21.537Z,103517.31
2023-02-06T04:12:50.529Z,103511.34
2023-02-06T04:15:18.364Z,103505.22
2023-02-06T04:17:57.913Z,103509.34
2023-02-06T04:20:27.529Z,103505.16
2023-02-06T04:22:55.485Z,103505.84
2023-02-06T04:25:23.185Z,103516.31
2023-02-06T04:27:52.450Z,103532.06
2023-02-06T04:30:20.500Z,103528.53
2023-02-06T04:32:48.170Z,103531.13
2023-02-06T04:35:15.855Z,103519.97
2023-02-06T04:37:43.612Z,103520.00
2023-02-06T04:40:12.796Z,103517.97
2023-02-06T04:42:40.460Z,103526.75
2023-02-06T04:45:10.403Z,103526.59
2023-02-06T04:47:38.110Z,103522.38
2023-02-06T04:50:06.885Z,103535.59
2023-02-06T04:52:34.652Z,103535.69
2023-02-06T04:55:02.392Z,103541.97
2023-02-06T04:57:30.041Z,103542.16
2023-02-06T04:59:57.774Z,103550.88
2023-02-06T05:02:26.887Z,103543.09
2023-02-06T05:04:54.529Z,103539.66
2023-02-06T05:07:22.188Z,103543.22
2023-02-06T05:09:49.860Z,103540.75
2023-02-06T05:12:17.589Z,103531.34
2023-02-06T05:14:45.222Z,103531.38
2023-02-06T05:17:13.096Z,103524.50
2023-02-06T05:19:42.086Z,103527.53
2023-02-06T05:22:10.042Z,103524.28
2023-02-06T05:24:37.798Z,103529.75
2023-02-06T05:27:05.589Z,103531.59
2023-02-06T05:29:33.261Z,103531.66
2023-02-06T05:32:00.972Z,103536.72
2023-02-06T05:34:28.644Z,103534.16
2023-02-06T05:36:57.719Z,103537.66
2023-02-06T05:39:25.488Z,103538.66
2023-02-06T05:41:53.159Z,103544.09
2023-02-06T05:44:20.836Z,103537.47
2023-02-06T05:46:49.345Z,103523.47
2023-02-06T05:49:17.309Z,103529.66
2023-02-06T05:51:45.042Z,103521.19
2023-02-06T05:54:16.993Z,103527.38
2023-02-06T05:56:44.779Z,103530.66
2023-02-06T05:59:12.647Z,103531.41
2023-02-06T06:01:40.380Z,103526.28
2023-02-06T06:04:08.204Z,103523.66
2023-02-06T06:06:35.970Z,103523.69
2023-02-06T06:09:03.678Z,103529.69
2023-02-06T06:11:33.415Z,103526.09
2023-02-06T06:14:01.614Z,103526.75
2023-02-06T06:16:29.410Z,103520.69
2023-02-06T06:18:57.140Z,103518.09
2023-02-06T06:21:25.015Z,103520.56
2023-02-06T06:23:52.767Z,103509.28
2023-02-06T06:26:20.637Z,103505.78
2023-02-06T06:28:49.949Z,103490.19
2023-02-06T06:31:17.673Z,103493.69
2023-02-06T06:33:45.665Z,103493.69
2023-02-06T06:36:14.543Z,103490.25
2023-02-06T06:38:42.814Z,103492.84
2023-02-06T06:41:10.510Z,103485.75
2023-02-06T06:43:38.203Z,103473.53
2023-02-06T06:46:07.412Z,103466.59
2023-02-06T06:48:36.506Z,103478.09
2023-02-06T06:51:04.148Z,103485.97
2023-02-06T06:53:31.858Z,103483.44
2023-02-06T06:56:03.722Z,103492.16
2023-02-06T06:58:31.546Z,103485.03
2023-02-06T07:00:59.338Z,103483.44
2023-02-06T07:03:28.586Z,103482.69
2023-02-06T07:05:56.351Z,103488.78
2023-02-06T07:08:24.059Z,103492.13
2023-02-06T07:10:51.789Z,103480.84
2023-02-06T07:13:19.540Z,103492.03
2023-02-06T07:15:47.207Z,103477.41
2023-02-06T07:18:14.897Z,103473.94
2023-02-06T07:20:43.903Z,103465.97
2023-02-06T07:23:11.579Z,103464.25
2023-02-06T07:25:39.260Z,103458.22
2023-02-06T07:28:06.925Z,103455.50
2023-02-06T07:30:34.660Z,103452.94
2023-02-06T07:33:02.335Z,103452.19
2023-02-06T07:35:30.046Z,103446.16
2023-02-06T07:37:59.126Z,103455.94
2023-02-06T07:40:33.755Z,103456.09
2023-02-06T07:43:10.882Z,103461.22
2023-02-06T07:45:38.872Z,103452.59
2023-02-06T07:48:07.869Z,103452.97
2023-02-06T07:50:35.663Z,103454.34
2023-02-06T07:53:04.906Z,103450.50
2023-02-06T07:55:32.587Z,103445.59
2023-02-06T07:58:00.228Z,103444.91
2023-02-06T08:00:27.874Z,103447.66
2023-02-06T08:02:55.584Z,103457.47
2023-02-06T08:05:23.304Z,103466.50
2023-02-06T08:07:51.599Z,103467.63
2023-02-06T08:10:20.924Z,103467.91
2023-02-06T08:12:48.575Z,103462.97
2023-02-06T08:15:17.120Z,103464.94
2023-02-06T08:17:44.825Z,103471.19
2023-02-06T08:20:13.442Z,103471.75
2023-02-06T08:22:41.169Z,103454.56
2023-02-06T08:25:09.318Z,103457.13
2023-02-06T08:27:38.293Z,103470.44
2023-02-06T08:30:06.940Z,103479.59
2023-02-06T08:32:35.513Z,103491.47
2023-02-06T08:35:03.184Z,103499.63
2023-02-06T08:37:32.430Z,103494.75
2023-02-06T08:40:00.113Z,103508.16
2023-02-06T08:42:27.777Z,103508.53
2023-02-06T08:44:56.862Z,103510.47
2023-02-06T08:47:24.495Z,103515.13
2023-02-06T08:49:52.255Z,103516.28
2023-02-06T08:52:20.010Z,103517.41
2023-02-06T08:54:47.705Z,103518.47
2023-02-06T08:57:15.389Z,103522.22
2023-02-06T08:59:43.086Z,103523.28
2023-02-06T09:02:12.879Z,103510.34
2023-02-06T09:04:42.656Z,103523.56
2023-02-06T09:07:10.414Z,103504.75
2023-02-06T09:09:38.274Z,103506.56
2023-02-06T09:12:06.293Z,103511.88
2023-02-06T09:14:35.375Z,103499.38
2023-02-06T09:17:03.180Z,103502.56
2023-02-06T09:19:32.205Z,103515.06
2023-02-06T09:22:00.271Z,103505.97
2023-02-06T09:24:30.199Z,103512.94
2023-02-06T09:27:00.320Z,103506.75
2023-02-06T09:29:31.514Z,103513.44
2023-02-06T09:31:59.520Z,103515.44
2023-02-06T09:34:28.261Z,103498.81
2023-02-06T09:36:57.772Z,103498.03
2023-02-06T09:39:25.606Z,103486.34
2023-02-06T09:41:55.151Z,103483.00
2023-02-06T09:44:26.521Z,103483.75
2023-02-06T09:46:57.324Z,103489.56
2023-02-06T09:49:29.725Z,103497.44
2023-02-06T09:52:10.756Z,103504.63
2023-02-06T09:54:46.199Z,103511.69
2023-02-06T09:57:17.323Z,103507.94
2023-02-06T09:59:48.943Z,103507.31
2023-02-06T10:02:27.981Z,103513.00
2023-02-06T10:04:58.146Z,103513.00
2023-02-06T10:07:39.490Z,103508.56
2023-02-06T10:10:13.859Z,103515.06
2023-02-06T10:12:43.850Z,103508.75
2023-02-06T10:15:15.204Z,103507.16
2023-02-06T10:17:47.734Z,103506.78
2023-02-06T10:20:19.726Z,103506.31
2023-02-06T10:22:58.600Z,103508.75
2023-02-06T10:25:30.360Z,103501.13
2023-02-06T10:28:00.231Z,103496.16
2023-02-06T10:30:38.716Z,103482.75
2023-02-06T10:33:20.301Z,103487.44
2023-02-06T10:36:00.406Z,103487.63
2023-02-06T10:38:38.863Z,103485.81
2023-02-06T10:41:12.218Z,103491.16
2023-02-06T10:43:45.746Z,103496.47
2023-02-06T10:46:29.113Z,103491.75
2023-02-06T10:49:02.138Z,103488.63
2023-02-06T10:51:33.028Z,103481.66
2023-02-06T10:54:04.367Z,103490.53
2023-02-06T10:56:36.833Z,103482.66
2023-02-06T10:59:07.916Z,103494.16
2023-02-06T11:01:38.337Z,103484.22
2023-02-06T11:04:10.964Z,103482.44
2023-02-06T11:06:40.157Z,103482.50
2023-02-06T11:09:09.949Z,103483.19
2023-02-06T11:11:40.552Z,103476.38
2023-02-06T11:14:13.598Z,103480.91
2023-02-06T11:16:41.796Z,103486.47
2023-02-06T11:19:16.962Z,103490.81
2023-02-06T11:21:51.590Z,103488.75
2023-02-06T11:24:22.425Z,103497.00
2023-02-06T11:26:52.109Z,103488.22
2023-02-06T11:29:21.894Z,103488.16
2023-02-06T11:31:52.923Z,103472.41
2023-02-06T11:34:24.717Z,103469.94
2023-02-06T11:36:54.654Z,103475.66
2023-02-06T11:39:27.591Z,103483.88
2023-02-06T11:42:00.281Z,103468.16
2023-02-06T11:44:29.846Z,103459.38
2023-02-06T11:46:58.068Z,103453.31
2023-02-06T11:49:28.933Z,103454.22
2023-02-06T11:51:59.738Z,103448.03
2023-02-06T11:54:30.583Z,103448.03
2023-02-06T11:57:03.088Z,103441.09
2023-02-06T11:59:33.901Z,103444.63
2023-02-06T12:02:05.636Z,103440.09
2023-02-06T12:04:36.409Z,103444.50
2023-02-06T12:07:08.124Z,103435.50
2023-02-06T12:09:37.214Z,103426.75
2023-02-06T12:12:09.236Z,103436.56
2023-02-06T12:14:40.454Z,103435.69
2023-02-06T12:17:16.387Z,103423.50
2023-02-06T12:19:47.495Z,103427.09
2023-02-06T12:22:19.646Z,103433.25
2023-02-06T12:24:50.244Z,103434.13
2023-02-06T12:27:20.864Z,103423.53
2023-02-06T12:29:55.178Z,103430.53
2023-02-06T12:32:26.034Z,103427.75
2023-02-06T12:34:55.602Z,103419.81
2023-02-06T12:37:31.944Z,103437.50
2023-02-06T12:40:01.740Z,103442.06
2023-02-06T12:42:39.734Z,103434.16
2023-02-06T12:45:22.221Z,103429.78
2023-02-06T12:47:54.655Z,103424.50
2023-02-06T12:50:24.883Z,103435.75
2023-02-06T12:52:55.066Z,103423.53
2023-02-06T12:55:28.343Z,103432.25
2023-02-06T12:57:56.456Z,103419.03
2023-02-06T13:00:38.106Z,103426.19
2023-02-06T13:03:28.671Z,103410.25
2023-02-06T13:06:03.560Z,103413.84
2023-02-06T13:08:43.580Z,103413.09
2023-02-06T13:11:24.073Z,103407.00
2023-02-06T13:14:00.618Z,103403.59
2023-02-06T13:16:39.328Z,103400.91
2023-02-06T13:19:07.080Z,103397.44
2023-02-06T13:21:36.723Z,103390.38
2023-02-06T13:24:18.291Z,103374.56
2023-02-06T13:27:16.339Z,103389.53
2023-02-06T13:29:45.629Z,103399.16
2023-02-06T13:32:43.060Z,103387.78
2023-02-06T13:35:27.219Z,103389.53
2023-02-06T13:38:29.504Z,103385.22
2023-02-06T13:41:18.987Z,103379.88
2023-02-06T13:43:52.204Z,103378.09
2023-02-06T13:46:22.198Z,103374.56
2023-02-06T13:49:07.548Z,103381.59
2023-02-06T13:51:50.277Z,103375.47
2023-02-06T13:54:58.863Z,103386.03
2023-02-06T13:57:41.164Z,103386.03
2023-02-06T14:00:15.325Z,103394.84
2023-02-06T14:02:43.979Z,103393.09
2023-02-06T14:05:14.388Z,103379.00
2023-02-06T14:07:55.514Z,103382.47
2023-02-06T14:10:38.990Z,103378.97
2023-02-06T14:13:18.401Z,103370.22
2023-02-06T14:15:54.329Z,103372.72
2023-02-06T14:18:41.129Z,103373.59
2023-02-06T14:21:19.587Z,103372.69
2023-02-06T14:24:00.437Z,103368.44
2023-02-06T14:26:36.196Z,103375.50
2023-02-06T14:29:11.011Z,103378.16
2023-02-06T14:32:11.979Z,103372.09
2023-02-06T14:34:51.661Z,103372.97
2023-02-06T14:37:30.506Z,103373.84
2023-02-06T14:40:04.481Z,103380.84
2023-02-06T14:42:35.103Z,103373.84
2023-02-06T14:45:05.278Z,103378.22
2023-02-06T14:47:40.003Z,103364.19
2023-02-06T14:50:09.208Z,103360.66
2023-02-06T14:52:37.025Z,103363.28
2023-02-06T14:55:32.271Z,103362.34
2023-02-06T14:58:00.157Z,103362.38
2023-02-06T15:00:29.367Z,103369.38
2023-02-06T15:03:08.020Z,103363.25
2023-02-06T15:05:36.434Z,103357.97
2023-02-06T15:08:05.583Z,103358.84
2023-02-06T15:10:35.919Z,103361.47
2023-02-06T15:13:04.338Z,103365.88
2023-02-06T15:15:33.799Z,103373.72
2023-02-06T15:18:04.477Z,103367.66
2023-02-06T15:20:37.068Z,103374.66
2023-02-06T15:23:17.118Z,103371.16
2023-02-06T15:26:00.483Z,103370.28
2023-02-06T15:28:30.473Z,103360.63
2023-02-06T15:30:59.832Z,103367.66
2023-02-06T15:33:30.759Z,103359.78
2023-02-06T15:36:01.276Z,103352.75
2023-02-06T15:38:30.624Z,103350.13
2023-02-06T15:41:01.435Z,103354.53
2023-02-06T15:43:29.521Z,103355.41
2023-02-06T15:45:59.201Z,103353.66
2023-02-06T15:48:29.812Z,103347.47
2023-02-06T15:51:01.020Z,103342.22
2023-02-06T15:53:35.922Z,103340.47
2023-02-06T15:56:05.080Z,103344.00
2023-02-06T15:58:34.300Z,103350.13
2023-02-06T16:01:03.093Z,103340.41
2023-02-06T16:03:31.536Z,103327.31
2023-02-06T16:06:00.925Z,103325.56
2023-02-06T16:08:32.064Z,103329.03
2023-02-06T16:11:02.507Z,103325.50
2023-02-06T16:13:31.991Z,103335.03
2023-02-06T16:16:18.110Z,103330.59
2023-02-06T16:18:46.515Z,103326.19
2023-02-06T16:21:25.065Z,103324.31
2023-02-06T16:23:56.828Z,103325.16
2023-02-06T16:26:26.627Z,103323.28
2023-02-06T16:28:58.132Z,103324.97
2023-02-06T16:31:26.485Z,103321.44
2023-02-06T16:33:55.454Z,103332.63
2023-02-06T16:36:25.224Z,103335.06
2023-02-06T16:39:03.736Z,103334.06
2023-02-06T16:41:34.315Z,103336.56
2023-02-06T16:44:03.018Z,103343.41
2023-02-06T16:46:31.350Z,103345.94
2023-02-06T16:49:00.399Z,103345.75
2023-02-06T16:51:30.891Z,103355.31
2023-02-06T16:53:59.360Z,103354.41
2023-02-06T16:56:27.096Z,103349.97
2023-02-06T16:58:54.839Z,103349.03
2023-02-06T17:01:25.259Z,103353.38
2023-02-06T17:03:53.676Z,103356.84
2023-02-06T17:06:23.380Z,103350.88
2023-02-06T17:08:53.218Z,103350.97
2023-02-06T17:11:21.054Z,103354.50
2023-02-06T17:13:49.084Z,103357.03
2023-02-06T17:16:19.274Z,103353.59
2023-02-06T17:18:47.462Z,103354.31
2023-02-06T17:21:16.871Z,103366.59
2023-02-06T17:23:45.722Z,103359.53
2023-02-06T17:26:16.663Z,103362.13
2023-02-06T17:28:44.512Z,103362.88
2023-02-06T17:31:12.413Z,103366.53
2023-02-06T17:33:40.228Z,103371.94
2023-02-06T17:36:10.865Z,103366.06
2023-02-06T17:38:38.539Z,103370.50
2023-02-06T17:41:06.436Z,103368.59
2023-02-06T17:43:37.403Z,103367.75
2023-02-06T17:46:05.397Z,103363.50
2023-02-06T17:48:36.434Z,103352.94
2023-02-06T17:51:05.714Z,103355.34
2023-02-06T17:53:33.466Z,103347.41
2023-02-06T17:56:05.043Z,103351.47
2023-02-06T17:58:32.773Z,103340.03
2023-02-06T18:01:02.074Z,103334.63
2023-02-06T18:03:29.891Z,103328.34
2023-02-06T18:05:58.968Z,103334.34
2023-02-06T18:08:26.812Z,103339.47
2023-02-06T18:10:54.624Z,103332.44
2023-02-06T18:13:24.358Z,103332.34
2023-02-06T18:15:53.350Z,103333.00
2023-02-06T18:18:23.541Z,103333.75
2023-02-06T18:20:52.154Z,103335.22
2023-02-06T18:23:20.201Z,103332.41
2023-02-06T18:25:47.961Z,103326.31
2023-02-06T18:28:17.258Z,103328.00
2023-02-06T18:30:45.689Z,103328.88
2023-02-06T18:33:13.780Z,103327.84
2023-02-06T18:35:46.462Z,103319.81
2023-02-06T18:38:15.312Z,103323.06
2023-02-06T18:40:45.580Z,103318.69
2023-02-06T18:43:13.183Z,103325.59
2023-02-06T18:45:41.731Z,103326.38
2023-02-06T18:48:11.339Z,103333.34
2023-02-06T18:50:42.813Z,103318.50
2023-02-06T18:53:10.514Z,103324.44
2023-02-06T18:55:39.028Z,103325.94
2023-02-06T18:58:07.162Z,103329.53
2023-02-06T19:00:36.085Z,103324.38
2023-02-06T19:03:04.457Z,103334.00
2023-02-06T19:05:35.919Z,103345.41
2023-02-06T19:08:05.022Z,103340.25
2023-02-06T19:10:32.679Z,103331.53
2023-02-06T19:13:00.395Z,103333.28
2023-02-06T19:15:30.161Z,103331.44
2023-02-06T19:17:57.969Z,103325.28
2023-02-06T19:20:25.823Z,103321.56
2023-02-06T19:22:53.648Z,103330.03
2023-02-06T19:25:22.813Z,103327.06
2023-02-06T19:27:50.572Z,103335.47
2023-02-06T19:30:18.303Z,103349.31
2023-02-06T19:32:46.116Z,103349.41
2023-02-06T19:35:14.581Z,103350.63
2023-02-06T19:37:42.265Z,103348.09
2023-02-06T19:40:10.920Z,103341.19
2023-02-06T19:42:41.489Z,103348.34
2023-02-06T19:45:09.399Z,103352.81
2023-02-06T19:47:37.276Z,103351.16
2023-02-06T19:50:06.003Z,103346.88
2023-02-06T19:52:35.201Z,103348.59
2023-02-06T19:55:03.028Z,103351.78
2023-02-06T19:57:30.773Z,103356.66
2023-02-06T20:00:00.398Z,103353.22
2023-02-06T20:02:28.142Z,103359.94
2023-02-06T20:04:55.897Z,103351.88
2023-02-06T20:07:23.617Z,103357.13
2023-02-06T20:09:52.221Z,103355.41
2023-02-06T20:12:20.203Z,103361.75
2023-02-06T20:14:47.977Z,103363.72
2023-02-06T20:17:18.041Z,103358.03
2023-02-06T20:19:45.758Z,103361.72
2023-02-06T20:22:13.443Z,103366.44
2023-02-06T20:24:41.184Z,103364.06
2023-02-06T20:27:09.482Z,103363.31
2023-02-06T20:29:38.692Z,103364.25
2023-02-06T20:32:07.283Z,103365.13
2023-02-06T20:34:36.819Z,103361.78
2023-02-06T20:37:04.853Z,103367.09
2023-02-06T20:39:32.883Z,103368.91
2023-02-06T20:42:00.620Z,103372.53
2023-02-06T20:44:28.743Z,103376.19
2023-02-06T20:46:56.478Z,103365.63
2023-02-06T20:49:26.235Z,103373.44
2023-02-06T20:51:55.907Z,103364.56
2023-02-06T20:54:24.938Z,103349.50
2023-02-06T20:56:52.712Z,103356.28
2023-02-06T20:59:21.351Z,103354.38
2023-02-06T21:01:49.331Z,103349.78
2023-02-06T21:04:17.831Z,103354.69
2023-02-06T21:06:47.784Z,103357.19
2023-02-06T21:09:17.712Z,103359.53
2023-02-06T21:11:47.250Z,103360.13
2023-02-06T21:14:15.652Z,103365.22
2023-02-06T21:16:44.272Z,103366.69
2023-02-06T21:19:14.104Z,103368.22
2023-02-06T21:21:43.694Z,103361.03
2023-02-06T21:24:13.572Z,103366.03
2023-02-06T21:26:42.807Z,103365.97
2023-02-06T21:29:11.401Z,103367.72
2023-02-06T21:31:39.314Z,103372.94
2023-02-06T21:34:09.030Z,103374.69
2023-02-06T21:36:37.961Z,103372.00
2023-02-06T21:39:06.207Z,103364.13
2023-02-06T21:41:34.035Z,103359.72
2023-02-06T21:44:03.292Z,103360.63
2023-02-06T21:46:31.338Z,103357.09
2023-02-06T21:48:59.110Z,103365.69
2023-02-06T21:51:27.072Z,103368.13
2023-02-06T21:53:56.346Z,103355.00
2023-02-06T21:56:27.112Z,103351.53
2023-02-06T21:58:54.994Z,103352.56
2023-02-06T22:01:25.614Z,103351.47
2023-02-06T22:03:53.876Z,103347.03
2023-02-06T22:06:21.767Z,103341.91
2023-02-06T22:08:51.860Z,103336.78
2023-02-06T22:11:22.376Z,103347.06
2023-02-06T22:13:50.692Z,103338.38
2023-02-06T22:16:20.350Z,103333.78
2023-02-06T22:18:49.518Z,103340.66
2023-02-06T22:21:18.751Z,103340.53
2023-02-06T22:23:47.602Z,103336.84
2023-02-06T22:26:17.127Z,103341.97
2023-02-06T22:28:45.869Z,103335.81
2023-02-06T22:31:16.086Z,103338.38
2023-02-06T22:33:44.449Z,103334.94
2023-02-06T22:36:15.691Z,103332.41
2023-02-06T22:38:44.295Z,103329.75
2023-02-06T22:41:13.300Z,103332.47
2023-02-06T22:43:41.100Z,103335.13
2023-02-06T22:46:09.750Z,103336.78
2023-02-06T22:48:37.636Z,103335.75
2023-02-06T22:51:06.531Z,103327.81
2023-02-06T22:53:36.362Z,103332.78
2023-02-06T22:56:23.980Z,103343.72
2023-02-06T22:58:52.726Z,103340.22
2023-02-06T23:01:21.924Z,103347.81
2023-02-06T23:03:52.664Z,103349.72
2023-02-06T23:06:21.057Z,103354.91
2023-02-06T23:08:50.402Z,103355.56
2023-02-06T23:11:18.351Z,103361.72
2023-02-06T23:13:46.341Z,103360.88
2023-02-06T23:16:14.117Z,103366.97
2023-02-06T23:18:41.849Z,103355.63
2023-02-06T23:21:12.091Z,103360.06
2023-02-06T23:23:40.807Z,103372.97
2023-02-06T23:26:10.760Z,103377.66
2023-02-06T23:28:39.122Z,103382.84
2023-02-06T23:31:07.124Z,103378.50
2023-02-06T23:33:35.354Z,103380.16
2023-02-06T23:36:05.932Z,103382.75
2023-02-06T23:38:33.823Z,103381.88
2023-02-06T23:41:06.607Z,103387.03
2023-02-06T23:43:36.016Z,103370.50
2023-02-06T23:46:03.908Z,103373.97
2023-02-06T23:48:31.766Z,103376.66
2023-02-06T23:50:59.583Z,103382.72
2023-02-06T23:53:27.370Z,103386.16
2023-02-06T23:55:55.412Z,103383.44
2023-02-06T23:58:23.144Z,103379.06
